メインページ
METAR-TAF:

METAR-TAF

空港 :

Penticton, ブリティッシュコロンビア州, カナダ

緯度: 49-28N, 経度: 119-36W, 海抜: 344m

現時点の気象観測

当レポートは48分前の02:00(UTC)に作成
の風 12kt、最大18ktの突風を伴う
気温 6°C
湿度 75%
気圧 1013 hPa
視程: 24.1km
高度2800ftの雲は散在している
高度4000ftの曇り

METAR: CYYF 070200Z 17012G18KT 15SM SCT028 OVC040 06/02 A2992 RMK SC3SC5 SLP142

時間: 18:48 (02:48 UTC)

予報

当レポートは2時間10分前の00:38(UTC)に作成
予報は07日の 01時(UTC)から 07日の 13時(UTC)まで有効
の風 15kt、最大25ktの突風を伴う
視程: 10km
高度2000ftの千切れ雲あり
07日の 01時(UTC)から 07日の 03時(UTC)まで一時的に
高度2000ftの雲は散在している
高度4000ftの千切れ雲あり
07日の 0300時(UTC)から
の風 15kt、最大25ktの突風を伴う
視程: 10km
高度2000ftの千切れ雲あり
07日の 03時(UTC)から 07日の 06時(UTC)まで一時的に
視程: 8.0km
小雨, 靄
07日の 0600時(UTC)から
の風 10kt、最大20ktの突風を伴う
視程: 10km
高度500ftの雲は散在している
高度1500ftの千切れ雲あり
07日の 10時(UTC)から 07日の 12時(UTC)まで徐々に
の風 8kt

TAF: CYYF 070038Z 0701/0713 18015G25KT P6SM BKN020 TEMPO 0701/0703 SCT020 BKN040 FM070300 18015G25KT P6SM BKN020 TEMPO 0703/0706 5SM -RA BR FM070600 18010G20KT P6SM SCT005 BKN015 BECMG 0710/0712 18008KT RMK NXT FCST BY 070700Z

4,000以上の空港の気象観測と天気予報(METAR報とTAF報)

利用可能な観測所は地図上に黄色い丸と赤い丸で示す。

丸の上にカーソルを重ねると観測所名を参照できる。

次にクリックすると気象観測と天気予報を参照できる。

マップの切り替え:黒色「×」印の緑ボタンをクリックして拡大、「-」印の緑ボタンをクリックして縮小、緑色の三角印をクリックして隣りの地図に切り替え


METAR-TAF: